Terminal Aerodrome Forecast
Issued by NWS Sterling, VA

Home | Current Version | Previous Version | Text Only | Print | Product List | Glossary On
Versions: 1 2 3 4 5 6 7 8 9 10 11 12 13 14 15 16 17 18 19 20 21 22 23 24
000
FTUS41 KLWX 312300 RRA
TAFIAD
TAF
KIAD 312345Z 0100/0206 06004KT P6SM BKN060
     FM010900 36005KT P6SM OVC060
     FM011300 35009KT P6SM OVC020
     FM011400 35013KT 4SM -SHRA OVC015
     FM011800 35017G26KT P6SM -SHRA OVC015
     FM020000 34018G27KT P6SM BKN040
     FM020300 33020G30KT P6SM SCT060=

USA.gov is the U.S. government's official web portal to all federal, state and local government web resources and services.